Augusta Regional Airport Airport (AGS)

 

Airport Diagram
Current Weather/Forecast (VFR Conditions)
METAR KAGS 131053Z 00000KT 7SM FEW010 21/20 A3005 RMK AO2 SLP175 T02060200 $
TAF KAGS 130951Z 1310/1406 VRB03KT P6SM BKN008 TEMPO 1310/1313 SCT008 FM131300 07005KT P6SM SCT012 FM131500 08005KT P6SM SCT020 SCT120

All Charts
General
Chart Name Download
AIRPORT DIAGRAM
TAKEOFF MINIMUMS
ALTERNATE MINIMUMS
HOT SPOT

Departures
Chart Name Download
CHATT SIX (RNAV)
DOVER FIVE (RNAV)
JUNPR SIX (RNAV)
KAOLN SIX (RNAV)
RDBUD FOUR (RNAV)
SAMMI FOUR (RNAV)

Arrivals
Chart Name Download
STUGE THREE
STUGE THREE, CONT.1
STWRT THREE

Approaches
Chart Name Download
ILS OR LOC RWY 17
ILS OR LOC RWY 35
RNAV (GPS) RWY 17
RNAV (GPS) RWY 26
RNAV (GPS) RWY 35
RNAV (GPS) Y RWY 08
RNAV (GPS) Z RWY 08


Inbound Traffic (Arrivals)

No inbound traffic.


Outbound Traffic (Departures)

No outbound traffic.